sensor_id;sensor_type;location;lat;lon;timestamp;P1;durP1;ratioP1;P2;durP2;ratioP2
10335;SDS011;5213;53.548;9.930;2022-11-20T00:00:27;4.32;;;3.28;;
10335;SDS011;5213;53.548;9.930;2022-11-20T00:02:53;3.53;;;3.00;;
10335;SDS011;5213;53.548;9.930;2022-11-20T00:05:19;3.20;;;2.90;;
10335;SDS011;5213;53.548;9.930;2022-11-20T00:07:46;4.97;;;3.15;;
10335;SDS011;5213;53.548;9.930;2022-11-20T00:10:12;4.10;;;2.90;;
10335;SDS011;5213;53.548;9.930;2022-11-20T00:12:38;3.55;;;3.20;;
10335;SDS011;5213;53.548;9.930;2022-11-20T00:15:04;5.20;;;3.20;;
10335;SDS011;5213;53.548;9.930;2022-11-20T00:17:30;4.25;;;3.17;;
10335;SDS011;5213;53.548;9.930;2022-11-20T00:19:56;3.22;;;2.92;;
10335;SDS011;5213;53.548;9.930;2022-11-20T00:22:22;3.53;;;3.22;;
10335;SDS011;5213;53.548;9.930;2022-11-20T00:24:48;3.22;;;2.92;;
10335;SDS011;5213;53.548;9.930;2022-11-20T00:27:14;4.00;;;3.00;;
10335;SDS011;5213;53.548;9.930;2022-11-20T00:29:40;3.35;;;3.05;;
10335;SDS011;5213;53.548;9.930;2022-11-20T00:32:06;3.58;;;3.22;;
10335;SDS011;5213;53.548;9.930;2022-11-20T00:34:32;4.15;;;3.25;;
10335;SDS011;5213;53.548;9.930;2022-11-20T00:36:58;6.60;;;3.20;;
10335;SDS011;5213;53.548;9.930;2022-11-20T00:39:24;3.83;;;3.33;;
10335;SDS011;5213;53.548;9.930;2022-11-20T00:41:50;3.60;;;3.28;;
10335;SDS011;5213;53.548;9.930;2022-11-20T00:44:16;3.58;;;3.28;;
10335;SDS011;5213;53.548;9.930;2022-11-20T00:46:42;5.65;;;3.55;;
10335;SDS011;5213;53.548;9.930;2022-11-20T00:49:08;4.10;;;3.30;;
10335;SDS011;5213;53.548;9.930;2022-11-20T00:51:34;3.67;;;3.38;;
10335;SDS011;5213;53.548;9.930;2022-11-20T00:54:00;3.90;;;3.50;;
10335;SDS011;5213;53.548;9.930;2022-11-20T00:56:27;4.80;;;3.50;;
10335;SDS011;5213;53.548;9.930;2022-11-20T00:58:53;3.65;;;3.35;;
10335;SDS011;5213;53.548;9.930;2022-11-20T01:01:20;5.20;;;3.53;;
10335;SDS011;5213;53.548;9.930;2022-11-20T01:03:49;5.20;;;3.13;;
10335;SDS011;5213;53.548;9.930;2022-11-20T01:06:16;3.92;;;3.25;;
10335;SDS011;5213;53.548;9.930;2022-11-20T01:08:43;4.18;;;3.78;;
10335;SDS011;5213;53.548;9.930;2022-11-20T01:11:10;3.38;;;3.08;;
10335;SDS011;5213;53.548;9.930;2022-11-20T01:13:36;4.10;;;3.50;;
10335;SDS011;5213;53.548;9.930;2022-11-20T01:16:13;3.72;;;3.42;;
10335;SDS011;5213;53.548;9.930;2022-11-20T01:18:40;3.60;;;3.30;;
10335;SDS011;5213;53.548;9.930;2022-11-20T01:21:07;3.90;;;3.60;;
10335;SDS011;5213;53.548;9.930;2022-11-20T01:23:34;3.90;;;3.50;;
10335;SDS011;5213;53.548;9.930;2022-11-20T01:26:01;4.40;;;3.70;;
10335;SDS011;5213;53.548;9.930;2022-11-20T01:28:28;3.55;;;3.25;;
10335;SDS011;5213;53.548;9.930;2022-11-20T01:30:54;4.53;;;3.40;;
10335;SDS011;5213;53.548;9.930;2022-11-20T01:33:20;3.92;;;3.30;;
10335;SDS011;5213;53.548;9.930;2022-11-20T01:35:46;3.28;;;3.05;;
10335;SDS011;5213;53.548;9.930;2022-11-20T01:38:12;4.15;;;3.17;;
10335;SDS011;5213;53.548;9.930;2022-11-20T01:40:38;4.05;;;3.65;;
10335;SDS011;5213;53.548;9.930;2022-11-20T01:43:10;3.85;;;3.30;;
10335;SDS011;5213;53.548;9.930;2022-11-20T01:45:58;3.88;;;3.45;;
10335;SDS011;5213;53.548;9.930;2022-11-20T01:48:26;3.80;;;3.50;;
10335;SDS011;5213;53.548;9.930;2022-11-20T01:50:54;3.90;;;3.47;;
10335;SDS011;5213;53.548;9.930;2022-11-20T01:53:21;3.58;;;3.28;;
10335;SDS011;5213;53.548;9.930;2022-11-20T01:55:51;3.38;;;3.08;;
10335;SDS011;5213;53.548;9.930;2022-11-20T01:58:19;4.28;;;3.60;;
10335;SDS011;5213;53.548;9.930;2022-11-20T02:00:46;4.35;;;3.45;;
10335;SDS011;5213;53.548;9.930;2022-11-20T02:03:13;4.28;;;3.60;;
10335;SDS011;5213;53.548;9.930;2022-11-20T02:08:25;4.65;;;3.65;;
10335;SDS011;5213;53.548;9.930;2022-11-20T02:10:51;4.03;;;3.63;;
10335;SDS011;5213;53.548;9.930;2022-11-20T02:13:17;4.38;;;3.97;;
10335;SDS011;5213;53.548;9.930;2022-11-20T02:16:02;3.83;;;3.53;;
10335;SDS011;5213;53.548;9.930;2022-11-20T02:18:29;4.82;;;4.00;;
10335;SDS011;5213;53.548;9.930;2022-11-20T02:20:59;3.70;;;3.40;;
10335;SDS011;5213;53.548;9.930;2022-11-20T02:23:33;3.90;;;3.60;;
10335;SDS011;5213;53.548;9.930;2022-11-20T02:26:03;5.97;;;3.90;;
10335;SDS011;5213;53.548;9.930;2022-11-20T02:28:30;4.40;;;4.00;;
10335;SDS011;5213;53.548;9.930;2022-11-20T02:30:56;4.50;;;4.05;;
10335;SDS011;5213;53.548;9.930;2022-11-20T02:33:22;4.40;;;4.00;;
10335;SDS011;5213;53.548;9.930;2022-11-20T02:35:48;4.57;;;4.18;;
10335;SDS011;5213;53.548;9.930;2022-11-20T02:38:14;5.10;;;4.07;;
10335;SDS011;5213;53.548;9.930;2022-11-20T02:40:41;5.60;;;4.43;;
10335;SDS011;5213;53.548;9.930;2022-11-20T02:43:07;4.50;;;3.92;;
10335;SDS011;5213;53.548;9.930;2022-11-20T02:45:34;4.47;;;4.07;;
10335;SDS011;5213;53.548;9.930;2022-11-20T02:48:00;4.20;;;3.80;;
10335;SDS011;5213;53.548;9.930;2022-11-20T02:50:26;4.93;;;4.47;;
10335;SDS011;5213;53.548;9.930;2022-11-20T02:52:52;5.00;;;4.20;;
10335;SDS011;5213;53.548;9.930;2022-11-20T02:55:18;4.57;;;3.95;;
10335;SDS011;5213;53.548;9.930;2022-11-20T02:57:44;4.35;;;3.95;;
10335;SDS011;5213;53.548;9.930;2022-11-20T03:00:10;5.97;;;4.05;;
10335;SDS011;5213;53.548;9.930;2022-11-20T03:02:37;4.35;;;3.95;;
10335;SDS011;5213;53.548;9.930;2022-11-20T03:05:03;4.82;;;4.20;;
10335;SDS011;5213;53.548;9.930;2022-11-20T03:07:29;4.43;;;4.03;;
10335;SDS011;5213;53.548;9.930;2022-11-20T03:09:55;4.60;;;4.20;;
10335;SDS011;5213;53.548;9.930;2022-11-20T03:12:21;5.40;;;4.00;;
10335;SDS011;5213;53.548;9.930;2022-11-20T03:14:47;4.75;;;4.35;;
10335;SDS011;5213;53.548;9.930;2022-11-20T03:17:13;4.78;;;4.30;;
10335;SDS011;5213;53.548;9.930;2022-11-20T03:19:39;5.35;;;4.30;;
10335;SDS011;5213;53.548;9.930;2022-11-20T03:22:05;4.40;;;4.00;;
10335;SDS011;5213;53.548;9.930;2022-11-20T03:24:31;4.35;;;3.95;;
10335;SDS011;5213;53.548;9.930;2022-11-20T03:26:57;6.28;;;4.03;;
10335;SDS011;5213;53.548;9.930;2022-11-20T03:29:23;4.40;;;4.00;;
10335;SDS011;5213;53.548;9.930;2022-11-20T03:31:49;4.05;;;3.75;;
10335;SDS011;5213;53.548;9.930;2022-11-20T03:34:15;4.32;;;3.92;;
10335;SDS011;5213;53.548;9.930;2022-11-20T03:36:42;5.28;;;4.43;;
10335;SDS011;5213;53.548;9.930;2022-11-20T03:39:08;4.60;;;4.10;;
10335;SDS011;5213;53.548;9.930;2022-11-20T03:41:38;4.22;;;3.92;;
10335;SDS011;5213;53.548;9.930;2022-11-20T03:44:05;5.30;;;4.20;;
10335;SDS011;5213;53.548;9.930;2022-11-20T03:46:32;4.85;;;3.80;;
10335;SDS011;5213;53.548;9.930;2022-11-20T03:48:58;5.32;;;3.80;;
10335;SDS011;5213;53.548;9.930;2022-11-20T03:53:51;4.43;;;4.03;;
10335;SDS011;5213;53.548;9.930;2022-11-20T03:56:18;5.05;;;4.07;;
10335;SDS011;5213;53.548;9.930;2022-11-20T03:58:45;4.15;;;3.53;;
10335;SDS011;5213;53.548;9.930;2022-11-20T04:01:12;4.68;;;3.83;;
10335;SDS011;5213;53.548;9.930;2022-11-20T04:03:39;4.68;;;4.28;;
10335;SDS011;5213;53.548;9.930;2022-11-20T04:06:06;4.65;;;3.80;;
10335;SDS011;5213;53.548;9.930;2022-11-20T04:08:32;4.88;;;3.70;;
10335;SDS011;5213;53.548;9.930;2022-11-20T04:11:08;4.40;;;3.92;;
10335;SDS011;5213;53.548;9.930;2022-11-20T04:13:34;3.97;;;3.60;;
10335;SDS011;5213;53.548;9.930;2022-11-20T04:16:00;4.38;;;3.97;;
10335;SDS011;5213;53.548;9.930;2022-11-20T04:18:26;4.53;;;3.75;;
10335;SDS011;5213;53.548;9.930;2022-11-20T04:20:52;4.47;;;3.97;;
10335;SDS011;5213;53.548;9.930;2022-11-20T04:23:19;4.50;;;4.10;;
10335;SDS011;5213;53.548;9.930;2022-11-20T04:25:45;4.85;;;4.20;;
10335;SDS011;5213;53.548;9.930;2022-11-20T04:28:11;4.57;;;4.18;;
10335;SDS011;5213;53.548;9.930;2022-11-20T04:30:37;4.93;;;4.30;;
10335;SDS011;5213;53.548;9.930;2022-11-20T04:33:03;5.88;;;4.03;;
10335;SDS011;5213;53.548;9.930;2022-11-20T04:35:29;4.28;;;3.88;;
10335;SDS011;5213;53.548;9.930;2022-11-20T04:37:55;4.53;;;4.13;;
10335;SDS011;5213;53.548;9.930;2022-11-20T04:40:21;5.50;;;4.05;;
10335;SDS011;5213;53.548;9.930;2022-11-20T04:42:47;4.50;;;4.10;;
10335;SDS011;5213;53.548;9.930;2022-11-20T04:45:13;4.40;;;4.00;;
10335;SDS011;5213;53.548;9.930;2022-11-20T04:47:39;5.15;;;4.20;;
10335;SDS011;5213;53.548;9.930;2022-11-20T04:50:05;4.50;;;4.10;;
10335;SDS011;5213;53.548;9.930;2022-11-20T04:52:31;4.40;;;3.90;;
10335;SDS011;5213;53.548;9.930;2022-11-20T04:54:57;4.78;;;4.38;;
10335;SDS011;5213;53.548;9.930;2022-11-20T04:57:23;4.07;;;3.65;;
10335;SDS011;5213;53.548;9.930;2022-11-20T04:59:49;4.55;;;3.80;;
10335;SDS011;5213;53.548;9.930;2022-11-20T05:02:16;5.57;;;3.95;;
10335;SDS011;5213;53.548;9.930;2022-11-20T05:04:42;4.18;;;3.78;;
10335;SDS011;5213;53.548;9.930;2022-11-20T05:07:08;4.40;;;4.05;;
10335;SDS011;5213;53.548;9.930;2022-11-20T05:09:34;4.40;;;4.00;;
10335;SDS011;5213;53.548;9.930;2022-11-20T05:12:00;4.20;;;3.90;;
10335;SDS011;5213;53.548;9.930;2022-11-20T05:14:26;4.78;;;4.38;;
10335;SDS011;5213;53.548;9.930;2022-11-20T05:16:52;4.93;;;4.30;;
10335;SDS011;5213;53.548;9.930;2022-11-20T05:19:18;5.47;;;4.25;;
10335;SDS011;5213;53.548;9.930;2022-11-20T05:21:44;5.82;;;4.40;;
10335;SDS011;5213;53.548;9.930;2022-11-20T05:24:10;4.45;;;4.05;;
10335;SDS011;5213;53.548;9.930;2022-11-20T05:26:36;5.07;;;4.20;;
10335;SDS011;5213;53.548;9.930;2022-11-20T05:29:02;5.78;;;3.95;;
10335;SDS011;5213;53.548;9.930;2022-11-20T05:31:28;5.22;;;4.30;;
10335;SDS011;5213;53.548;9.930;2022-11-20T05:33:55;4.63;;;4.20;;
10335;SDS011;5213;53.548;9.930;2022-11-20T05:36:21;4.47;;;4.07;;
10335;SDS011;5213;53.548;9.930;2022-11-20T05:38:47;4.88;;;4.38;;
10335;SDS011;5213;53.548;9.930;2022-11-20T05:41:14;4.97;;;4.03;;
10335;SDS011;5213;53.548;9.930;2022-11-20T05:43:41;5.28;;;3.97;;
10335;SDS011;5213;53.548;9.930;2022-11-20T05:46:08;5.18;;;4.68;;
10335;SDS011;5213;53.548;9.930;2022-11-20T05:48:34;4.80;;;4.40;;
10335;SDS011;5213;53.548;9.930;2022-11-20T05:51:01;5.43;;;4.57;;
10335;SDS011;5213;53.548;9.930;2022-11-20T05:53:28;5.38;;;4.80;;
10335;SDS011;5213;53.548;9.930;2022-11-20T05:55:57;5.25;;;4.45;;
10335;SDS011;5213;53.548;9.930;2022-11-20T05:58:23;4.82;;;4.40;;
10335;SDS011;5213;53.548;9.930;2022-11-20T06:00:49;5.13;;;4.53;;
10335;SDS011;5213;53.548;9.930;2022-11-20T06:03:16;5.30;;;4.80;;
10335;SDS011;5213;53.548;9.930;2022-11-20T06:05:42;6.05;;;5.22;;
10335;SDS011;5213;53.548;9.930;2022-11-20T06:08:08;5.93;;;5.13;;
10335;SDS011;5213;53.548;9.930;2022-11-20T06:10:34;6.43;;;4.88;;
10335;SDS011;5213;53.548;9.930;2022-11-20T06:13:00;6.60;;;4.90;;
10335;SDS011;5213;53.548;9.930;2022-11-20T06:15:26;7.40;;;6.18;;
10335;SDS011;5213;53.548;9.930;2022-11-20T06:17:55;7.70;;;6.22;;
10335;SDS011;5213;53.548;9.930;2022-11-20T06:20:21;8.82;;;5.40;;
10335;SDS011;5213;53.548;9.930;2022-11-20T06:22:47;6.60;;;5.40;;
10335;SDS011;5213;53.548;9.930;2022-11-20T06:25:13;5.57;;;4.80;;
10335;SDS011;5213;53.548;9.930;2022-11-20T06:27:39;5.88;;;4.75;;
10335;SDS011;5213;53.548;9.930;2022-11-20T06:30:06;9.45;;;4.63;;
10335;SDS011;5213;53.548;9.930;2022-11-20T06:32:32;5.72;;;4.57;;
10335;SDS011;5213;53.548;9.930;2022-11-20T06:34:58;4.53;;;4.13;;
10335;SDS011;5213;53.548;9.930;2022-11-20T06:37:24;5.07;;;4.53;;
10335;SDS011;5213;53.548;9.930;2022-11-20T06:39:50;5.15;;;4.30;;
10335;SDS011;5213;53.548;9.930;2022-11-20T06:42:16;6.05;;;4.57;;
10335;SDS011;5213;53.548;9.930;2022-11-20T06:44:42;4.57;;;4.18;;
10335;SDS011;5213;53.548;9.930;2022-11-20T06:47:08;5.65;;;4.50;;
10335;SDS011;5213;53.548;9.930;2022-11-20T06:49:35;5.10;;;4.57;;
10335;SDS011;5213;53.548;9.930;2022-11-20T06:52:03;4.75;;;4.30;;
10335;SDS011;5213;53.548;9.930;2022-11-20T06:54:29;5.50;;;4.53;;
10335;SDS011;5213;53.548;9.930;2022-11-20T06:56:55;5.22;;;4.30;;
10335;SDS011;5213;53.548;9.930;2022-11-20T06:59:21;4.97;;;4.57;;
10335;SDS011;5213;53.548;9.930;2022-11-20T07:01:47;4.95;;;4.13;;
10335;SDS011;5213;53.548;9.930;2022-11-20T07:04:13;5.68;;;3.97;;
10335;SDS011;5213;53.548;9.930;2022-11-20T07:06:39;5.13;;;4.63;;
10335;SDS011;5213;53.548;9.930;2022-11-20T07:09:05;4.57;;;4.18;;
10335;SDS011;5213;53.548;9.930;2022-11-20T07:11:31;4.70;;;4.15;;
10335;SDS011;5213;53.548;9.930;2022-11-20T07:13:57;5.90;;;4.18;;
10335;SDS011;5213;53.548;9.930;2022-11-20T07:16:23;4.90;;;4.40;;
10335;SDS011;5213;53.548;9.930;2022-11-20T07:18:49;5.20;;;4.75;;
10335;SDS011;5213;53.548;9.930;2022-11-20T07:21:15;6.68;;;5.82;;
10335;SDS011;5213;53.548;9.930;2022-11-20T07:23:41;6.93;;;5.38;;
10335;SDS011;5213;53.548;9.930;2022-11-20T07:26:08;6.18;;;5.57;;
10335;SDS011;5213;53.548;9.930;2022-11-20T07:28:35;7.80;;;6.38;;
10335;SDS011;5213;53.548;9.930;2022-11-20T07:31:01;7.13;;;6.43;;
10335;SDS011;5213;53.548;9.930;2022-11-20T07:33:27;8.05;;;7.25;;
10335;SDS011;5213;53.548;9.930;2022-11-20T07:35:53;9.48;;;7.50;;
10335;SDS011;5213;53.548;9.930;2022-11-20T07:38:19;9.20;;;8.02;;
10335;SDS011;5213;53.548;9.930;2022-11-20T07:40:45;9.70;;;8.70;;
10335;SDS011;5213;53.548;9.930;2022-11-20T07:43:11;9.77;;;8.77;;
10335;SDS011;5213;53.548;9.930;2022-11-20T07:45:37;8.68;;;7.78;;
10335;SDS011;5213;53.548;9.930;2022-11-20T07:48:03;8.73;;;7.82;;
10335;SDS011;5213;53.548;9.930;2022-11-20T07:50:29;7.97;;;7.18;;
10335;SDS011;5213;53.548;9.930;2022-11-20T07:53:05;7.90;;;6.78;;
10335;SDS011;5213;53.548;9.930;2022-11-20T07:55:31;6.80;;;6.10;;
10335;SDS011;5213;53.548;9.930;2022-11-20T07:57:57;6.72;;;6.05;;
10335;SDS011;5213;53.548;9.930;2022-11-20T08:00:23;7.80;;;6.03;;
10335;SDS011;5213;53.548;9.930;2022-11-20T08:02:49;6.38;;;5.70;;
10335;SDS011;5213;53.548;9.930;2022-11-20T08:05:16;7.13;;;6.43;;
10335;SDS011;5213;53.548;9.930;2022-11-20T08:07:42;7.18;;;6.07;;
10335;SDS011;5213;53.548;9.930;2022-11-20T08:10:09;6.88;;;6.22;;
10335;SDS011;5213;53.548;9.930;2022-11-20T08:12:35;6.40;;;5.80;;
10335;SDS011;5213;53.548;9.930;2022-11-20T08:15:20;5.85;;;4.90;;
10335;SDS011;5213;53.548;9.930;2022-11-20T08:17:46;5.13;;;4.53;;
10335;SDS011;5213;53.548;9.930;2022-11-20T08:20:12;5.40;;;4.90;;
10335;SDS011;5213;53.548;9.930;2022-11-20T08:22:38;4.68;;;4.28;;
10335;SDS011;5213;53.548;9.930;2022-11-20T08:25:04;5.25;;;4.75;;
10335;SDS011;5213;53.548;9.930;2022-11-20T08:27:31;5.07;;;4.68;;
10335;SDS011;5213;53.548;9.930;2022-11-20T08:29:58;5.47;;;4.82;;
10335;SDS011;5213;53.548;9.930;2022-11-20T08:32:24;5.22;;;4.32;;
10335;SDS011;5213;53.548;9.930;2022-11-20T08:34:50;4.55;;;4.07;;
10335;SDS011;5213;53.548;9.930;2022-11-20T08:37:16;4.38;;;3.92;;
10335;SDS011;5213;53.548;9.930;2022-11-20T08:39:42;3.95;;;3.65;;
10335;SDS011;5213;53.548;9.930;2022-11-20T08:42:08;4.50;;;4.10;;
10335;SDS011;5213;53.548;9.930;2022-11-20T08:44:34;4.15;;;3.80;;
10335;SDS011;5213;53.548;9.930;2022-11-20T08:47:00;5.50;;;3.70;;
10335;SDS011;5213;53.548;9.930;2022-11-20T08:49:26;4.22;;;3.83;;
10335;SDS011;5213;53.548;9.930;2022-11-20T08:51:52;4.22;;;3.50;;
10335;SDS011;5213;53.548;9.930;2022-11-20T08:54:20;3.72;;;3.42;;
10335;SDS011;5213;53.548;9.930;2022-11-20T08:56:47;3.45;;;3.25;;
10335;SDS011;5213;53.548;9.930;2022-11-20T08:59:13;3.70;;;3.40;;
10335;SDS011;5213;53.548;9.930;2022-11-20T09:01:39;3.58;;;3.28;;
10335;SDS011;5213;53.548;9.930;2022-11-20T09:04:05;4.00;;;3.70;;
10335;SDS011;5213;53.548;9.930;2022-11-20T09:06:31;3.30;;;3.00;;
10335;SDS011;5213;53.548;9.930;2022-11-20T09:08:57;3.30;;;3.10;;
10335;SDS011;5213;53.548;9.930;2022-11-20T09:11:23;3.22;;;2.97;;
10335;SDS011;5213;53.548;9.930;2022-11-20T09:13:50;3.53;;;3.15;;
10335;SDS011;5213;53.548;9.930;2022-11-20T09:16:16;3.42;;;3.08;;
10335;SDS011;5213;53.548;9.930;2022-11-20T09:18:42;3.10;;;2.80;;
10335;SDS011;5213;53.548;9.930;2022-11-20T09:21:11;3.40;;;3.10;;
10335;SDS011;5213;53.548;9.930;2022-11-20T09:23:38;2.97;;;2.78;;
10335;SDS011;5213;53.548;9.930;2022-11-20T09:26:04;2.85;;;2.65;;
10335;SDS011;5213;53.548;9.930;2022-11-20T09:28:31;3.13;;;2.92;;
10335;SDS011;5213;53.548;9.930;2022-11-20T09:30:57;2.85;;;2.65;;
10335;SDS011;5213;53.548;9.930;2022-11-20T09:33:24;3.17;;;2.92;;
10335;SDS011;5213;53.548;9.930;2022-11-20T09:35:50;2.63;;;2.47;;
10335;SDS011;5213;53.548;9.930;2022-11-20T09:38:16;2.17;;;2.08;;
10335;SDS011;5213;53.548;9.930;2022-11-20T09:44:12;2.33;;;2.20;;
10335;SDS011;5213;53.548;9.930;2022-11-20T09:46:26;2.80;;;2.60;;
10335;SDS011;5213;53.548;9.930;2022-11-20T09:56:21;2.92;;;2.60;;
10335;SDS011;5213;53.548;9.930;2022-11-20T09:58:52;2.75;;;2.55;;
10335;SDS011;5213;53.548;9.930;2022-11-20T10:01:21;2.63;;;2.45;;
10335;SDS011;5213;53.548;9.930;2022-11-20T10:06:34;2.65;;;2.45;;
10335;SDS011;5213;53.548;9.930;2022-11-20T10:09:13;2.92;;;2.72;;
10335;SDS011;5213;53.548;9.930;2022-11-20T10:11:45;3.00;;;2.70;;
10335;SDS011;5213;53.548;9.930;2022-11-20T10:24:31;2.70;;;2.53;;
10335;SDS011;5213;53.548;9.930;2022-11-20T10:27:04;3.00;;;2.80;;
10335;SDS011;5213;53.548;9.930;2022-11-20T10:29:33;3.75;;;2.60;;
10335;SDS011;5213;53.548;9.930;2022-11-20T10:32:00;2.90;;;2.70;;
10335;SDS011;5213;53.548;9.930;2022-11-20T10:34:33;2.60;;;2.40;;
10335;SDS011;5213;53.548;9.930;2022-11-20T10:37:05;2.42;;;2.22;;
10335;SDS011;5213;53.548;9.930;2022-11-20T10:39:42;2.78;;;2.58;;
10335;SDS011;5213;53.548;9.930;2022-11-20T10:42:12;2.53;;;2.42;;
10335;SDS011;5213;53.548;9.930;2022-11-20T10:44:39;3.35;;;3.05;;
10335;SDS011;5213;53.548;9.930;2022-11-20T10:47:25;3.00;;;2.80;;
10335;SDS011;5213;53.548;9.930;2022-11-20T10:49:54;2.70;;;2.50;;
10335;SDS011;5213;53.548;9.930;2022-11-20T10:57:57;2.90;;;2.67;;
10335;SDS011;5213;53.548;9.930;2022-11-20T11:00:26;2.95;;;2.75;;
10335;SDS011;5213;53.548;9.930;2022-11-20T11:02:53;3.75;;;3.15;;
10335;SDS011;5213;53.548;9.930;2022-11-20T11:08:13;3.20;;;3.00;;
10335;SDS011;5213;53.548;9.930;2022-11-20T11:15:47;3.22;;;3.03;;
10335;SDS011;5213;53.548;9.930;2022-11-20T11:18:22;3.40;;;3.10;;
10335;SDS011;5213;53.548;9.930;2022-11-20T11:20:52;2.92;;;2.72;;
10335;SDS011;5213;53.548;9.930;2022-11-20T11:25:57;3.25;;;3.00;;
10335;SDS011;5213;53.548;9.930;2022-11-20T11:28:24;3.25;;;3.00;;
10335;SDS011;5213;53.548;9.930;2022-11-20T11:30:52;3.45;;;3.15;;
10335;SDS011;5213;53.548;9.930;2022-11-20T11:33:22;3.88;;;3.47;;
10335;SDS011;5213;53.548;9.930;2022-11-20T11:35:50;3.53;;;3.22;;
10335;SDS011;5213;53.548;9.930;2022-11-20T11:40:53;3.25;;;2.78;;
10335;SDS011;5213;53.548;9.930;2022-11-20T11:43:20;3.20;;;3.00;;
10335;SDS011;5213;53.548;9.930;2022-11-20T11:46:21;3.60;;;3.30;;
10335;SDS011;5213;53.548;9.930;2022-11-20T11:48:55;3.30;;;3.10;;
10335;SDS011;5213;53.548;9.930;2022-11-20T11:51:22;3.45;;;3.15;;
10335;SDS011;5213;53.548;9.930;2022-11-20T11:53:49;4.35;;;3.55;;
10335;SDS011;5213;53.548;9.930;2022-11-20T11:56:16;3.40;;;3.20;;
10335;SDS011;5213;53.548;9.930;2022-11-20T11:58:48;3.17;;;2.97;;
10335;SDS011;5213;53.548;9.930;2022-11-20T12:01:30;3.25;;;2.80;;
10335;SDS011;5213;53.548;9.930;2022-11-20T12:06:30;3.85;;;3.45;;
10335;SDS011;5213;53.548;9.930;2022-11-20T12:08:59;3.70;;;3.40;;
10335;SDS011;5213;53.548;9.930;2022-11-20T12:11:47;3.40;;;3.10;;
10335;SDS011;5213;53.548;9.930;2022-11-20T12:14:20;2.75;;;2.50;;
10335;SDS011;5213;53.548;9.930;2022-11-20T12:16:49;2.42;;;2.25;;
10335;SDS011;5213;53.548;9.930;2022-11-20T12:19:17;2.30;;;2.10;;
10335;SDS011;5213;53.548;9.930;2022-11-20T12:21:59;2.17;;;2.08;;
10335;SDS011;5213;53.548;9.930;2022-11-20T12:24:32;2.47;;;2.28;;
10335;SDS011;5213;53.548;9.930;2022-11-20T12:37:58;2.53;;;2.33;;
10335;SDS011;5213;53.548;9.930;2022-11-20T12:40:43;2.75;;;2.55;;
10335;SDS011;5213;53.548;9.930;2022-11-20T12:43:22;3.60;;;3.30;;
10335;SDS011;5213;53.548;9.930;2022-11-20T13:01:51;2.83;;;2.63;;
10335;SDS011;5213;53.548;9.930;2022-11-20T13:07:03;2.83;;;2.50;;
10335;SDS011;5213;53.548;9.930;2022-11-20T13:09:31;2.40;;;2.20;;
10335;SDS011;5213;53.548;9.930;2022-11-20T13:14:40;3.03;;;2.70;;
10335;SDS011;5213;53.548;9.930;2022-11-20T13:19:54;2.70;;;2.30;;
10335;SDS011;5213;53.548;9.930;2022-11-20T13:22:27;1.90;;;1.80;;
10335;SDS011;5213;53.548;9.930;2022-11-20T13:24:53;2.10;;;2.00;;
10335;SDS011;5213;53.548;9.930;2022-11-20T13:27:23;1.92;;;1.83;;
10335;SDS011;5213;53.548;9.930;2022-11-20T13:30:00;3.35;;;2.50;;
10335;SDS011;5213;53.548;9.930;2022-11-20T13:32:26;2.40;;;2.28;;
10335;SDS011;5213;53.548;9.930;2022-11-20T13:35:01;2.78;;;2.58;;
10335;SDS011;5213;53.548;9.930;2022-11-20T13:37:37;2.50;;;2.30;;
10335;SDS011;5213;53.548;9.930;2022-11-20T13:40:11;2.40;;;2.17;;
10335;SDS011;5213;53.548;9.930;2022-11-20T13:42:54;2.70;;;2.40;;
10335;SDS011;5213;53.548;9.930;2022-11-20T13:45:30;2.60;;;2.40;;
10335;SDS011;5213;53.548;9.930;2022-11-20T13:47:57;2.40;;;2.30;;
10335;SDS011;5213;53.548;9.930;2022-11-20T13:50:40;2.47;;;2.22;;
10335;SDS011;5213;53.548;9.930;2022-11-20T13:53:28;2.85;;;2.50;;
10335;SDS011;5213;53.548;9.930;2022-11-20T13:55:59;2.58;;;2.40;;
10335;SDS011;5213;53.548;9.930;2022-11-20T14:01:19;2.50;;;2.40;;
10335;SDS011;5213;53.548;9.930;2022-11-20T14:03:47;2.40;;;2.30;;
10335;SDS011;5213;53.548;9.930;2022-11-20T14:06:16;3.63;;;2.40;;
10335;SDS011;5213;53.548;9.930;2022-11-20T14:08:47;2.80;;;2.50;;
10335;SDS011;5213;53.548;9.930;2022-11-20T14:11:16;2.60;;;2.50;;
10335;SDS011;5213;53.548;9.930;2022-11-20T14:16:29;2.55;;;2.40;;
10335;SDS011;5213;53.548;9.930;2022-11-20T14:18:56;2.50;;;2.30;;
10335;SDS011;5213;53.548;9.930;2022-11-20T14:21:26;2.58;;;2.38;;
10335;SDS011;5213;53.548;9.930;2022-11-20T14:23:53;2.80;;;2.60;;
10335;SDS011;5213;53.548;9.930;2022-11-20T14:26:19;2.55;;;2.35;;
10335;SDS011;5213;53.548;9.930;2022-11-20T14:28:47;3.42;;;2.85;;
10335;SDS011;5213;53.548;9.930;2022-11-20T14:31:17;3.10;;;2.88;;
10335;SDS011;5213;53.548;9.930;2022-11-20T14:33:44;3.50;;;2.60;;
10335;SDS011;5213;53.548;9.930;2022-11-20T14:36:16;2.75;;;2.55;;
10335;SDS011;5213;53.548;9.930;2022-11-20T14:38:44;4.25;;;2.90;;
10335;SDS011;5213;53.548;9.930;2022-11-20T14:41:20;2.63;;;2.42;;
10335;SDS011;5213;53.548;9.930;2022-11-20T14:43:54;2.53;;;2.33;;
10335;SDS011;5213;53.548;9.930;2022-11-20T14:46:21;2.55;;;2.35;;
10335;SDS011;5213;53.548;9.930;2022-11-20T14:48:53;3.67;;;2.70;;
10335;SDS011;5213;53.548;9.930;2022-11-20T14:51:26;3.15;;;2.85;;
10335;SDS011;5213;53.548;9.930;2022-11-20T14:53:53;2.50;;;2.30;;
10335;SDS011;5213;53.548;9.930;2022-11-20T14:56:22;2.63;;;2.42;;
10335;SDS011;5213;53.548;9.930;2022-11-20T14:58:58;2.75;;;2.47;;
10335;SDS011;5213;53.548;9.930;2022-11-20T15:01:25;2.70;;;2.50;;
10335;SDS011;5213;53.548;9.930;2022-11-20T15:03:58;3.00;;;2.70;;
10335;SDS011;5213;53.548;9.930;2022-11-20T15:06:25;3.10;;;2.90;;
10335;SDS011;5213;53.548;9.930;2022-11-20T15:08:52;3.10;;;2.90;;
10335;SDS011;5213;53.548;9.930;2022-11-20T15:11:19;4.07;;;3.45;;
10335;SDS011;5213;53.548;9.930;2022-11-20T15:13:46;3.67;;;3.05;;
10335;SDS011;5213;53.548;9.930;2022-11-20T15:16:19;3.28;;;2.63;;
10335;SDS011;5213;53.548;9.930;2022-11-20T15:18:45;3.13;;;2.80;;
10335;SDS011;5213;53.548;9.930;2022-11-20T15:21:16;2.80;;;2.60;;
10335;SDS011;5213;53.548;9.930;2022-11-20T15:23:43;3.20;;;3.00;;
10335;SDS011;5213;53.548;9.930;2022-11-20T15:26:10;3.70;;;3.40;;
10335;SDS011;5213;53.548;9.930;2022-11-20T15:28:38;3.70;;;3.40;;
10335;SDS011;5213;53.548;9.930;2022-11-20T15:31:05;3.33;;;3.03;;
10335;SDS011;5213;53.548;9.930;2022-11-20T15:33:32;3.55;;;3.25;;
10335;SDS011;5213;53.548;9.930;2022-11-20T15:35:58;3.40;;;3.10;;
10335;SDS011;5213;53.548;9.930;2022-11-20T15:38:24;3.70;;;3.40;;
10335;SDS011;5213;53.548;9.930;2022-11-20T15:40:51;3.97;;;3.45;;
10335;SDS011;5213;53.548;9.930;2022-11-20T15:43:17;3.20;;;3.00;;
10335;SDS011;5213;53.548;9.930;2022-11-20T15:48:19;3.10;;;2.90;;
10335;SDS011;5213;53.548;9.930;2022-11-20T15:50:59;3.45;;;3.15;;
10335;SDS011;5213;53.548;9.930;2022-11-20T15:53:27;3.45;;;3.15;;
10335;SDS011;5213;53.548;9.930;2022-11-20T15:55:53;3.35;;;3.05;;
10335;SDS011;5213;53.548;9.930;2022-11-20T15:58:19;5.60;;;3.90;;
10335;SDS011;5213;53.548;9.930;2022-11-20T16:00:45;3.97;;;3.58;;
10335;SDS011;5213;53.548;9.930;2022-11-20T16:03:12;3.90;;;3.50;;
10335;SDS011;5213;53.548;9.930;2022-11-20T16:05:38;3.30;;;3.10;;
10335;SDS011;5213;53.548;9.930;2022-11-20T16:08:04;3.63;;;3.33;;
10335;SDS011;5213;53.548;9.930;2022-11-20T16:10:30;3.50;;;3.20;;
10335;SDS011;5213;53.548;9.930;2022-11-20T16:12:56;4.70;;;3.70;;
10335;SDS011;5213;53.548;9.930;2022-11-20T16:15:41;3.50;;;3.20;;
10335;SDS011;5213;53.548;9.930;2022-11-20T16:18:10;3.95;;;3.00;;
10335;SDS011;5213;53.548;9.930;2022-11-20T16:20:36;3.47;;;3.17;;
10335;SDS011;5213;53.548;9.930;2022-11-20T16:23:03;3.58;;;3.28;;
10335;SDS011;5213;53.548;9.930;2022-11-20T16:25:29;4.15;;;3.78;;
10335;SDS011;5213;53.548;9.930;2022-11-20T16:27:55;3.55;;;3.33;;
10335;SDS011;5213;53.548;9.930;2022-11-20T16:30:21;3.60;;;3.30;;
10335;SDS011;5213;53.548;9.930;2022-11-20T16:32:47;3.40;;;3.10;;
10335;SDS011;5213;53.548;9.930;2022-11-20T16:35:13;3.40;;;3.10;;
10335;SDS011;5213;53.548;9.930;2022-11-20T16:37:39;3.20;;;2.80;;